sensor_id;sensor_type;location;lat;lon;timestamp;temperature;humidity
33901;DHT22;20193;49.810;6.418;2022-09-03T00:02:24;17.90;70.30
33901;DHT22;20193;49.810;6.418;2022-09-03T00:08:00;17.90;70.90
33901;DHT22;20193;49.810;6.418;2022-09-03T00:13:32;17.90;71.30
33901;DHT22;20193;49.810;6.418;2022-09-03T00:15:59;17.90;71.40
33901;DHT22;20193;49.810;6.418;2022-09-03T00:18:32;18.00;71.60
33901;DHT22;20193;49.810;6.418;2022-09-03T00:21:13;18.00;71.60
33901;DHT22;20193;49.810;6.418;2022-09-03T00:23:41;18.00;71.60
33901;DHT22;20193;49.810;6.418;2022-09-03T00:28:44;18.00;71.40
33901;DHT22;20193;49.810;6.418;2022-09-03T00:31:24;18.00;71.30
33901;DHT22;20193;49.810;6.418;2022-09-03T00:34:06;18.10;71.20
33901;DHT22;20193;49.810;6.418;2022-09-03T00:36:38;18.00;71.10
33901;DHT22;20193;49.810;6.418;2022-09-03T00:39:09;18.10;71.10
33901;DHT22;20193;49.810;6.418;2022-09-03T00:41:59;18.10;71.10
33901;DHT22;20193;49.810;6.418;2022-09-03T00:45:00;18.10;71.20
33901;DHT22;20193;49.810;6.418;2022-09-03T00:50:15;18.10;72.00
33901;DHT22;20193;49.810;6.418;2022-09-03T00:53:58;18.20;72.30
33901;DHT22;20193;49.810;6.418;2022-09-03T00:56:12;18.20;72.40
33901;DHT22;20193;49.810;6.418;2022-09-03T01:09:52;18.20;71.90
33901;DHT22;20193;49.810;6.418;2022-09-03T01:26:20;18.30;72.20
33901;DHT22;20193;49.810;6.418;2022-09-03T01:37:13;18.40;72.20
33901;DHT22;20193;49.810;6.418;2022-09-03T01:43:08;18.40;71.90
33901;DHT22;20193;49.810;6.418;2022-09-03T01:45:42;18.40;72.20
33901;DHT22;20193;49.810;6.418;2022-09-03T01:51:21;18.50;73.30
33901;DHT22;20193;49.810;6.418;2022-09-03T01:54:16;18.50;73.50
33901;DHT22;20193;49.810;6.418;2022-09-03T01:59:29;18.50;73.60
33901;DHT22;20193;49.810;6.418;2022-09-03T02:02:19;18.50;73.70
33901;DHT22;20193;49.810;6.418;2022-09-03T02:04:56;18.50;73.70
33901;DHT22;20193;49.810;6.418;2022-09-03T02:07:25;18.50;73.60
33901;DHT22;20193;49.810;6.418;2022-09-03T02:09:51;18.50;73.60
33901;DHT22;20193;49.810;6.418;2022-09-03T02:12:17;18.40;73.50
33901;DHT22;20193;49.810;6.418;2022-09-03T02:14:45;18.40;73.60
33901;DHT22;20193;49.810;6.418;2022-09-03T02:17:11;18.40;73.70
33901;DHT22;20193;49.810;6.418;2022-09-03T02:19:37;18.40;73.60
33901;DHT22;20193;49.810;6.418;2022-09-03T02:22:04;18.40;73.70
33901;DHT22;20193;49.810;6.418;2022-09-03T02:24:30;18.40;73.70
33901;DHT22;20193;49.810;6.418;2022-09-03T02:26:59;18.40;73.70
33901;DHT22;20193;49.810;6.418;2022-09-03T02:29:25;18.40;73.80
33901;DHT22;20193;49.810;6.418;2022-09-03T02:31:50;18.40;73.90
33901;DHT22;20193;49.810;6.418;2022-09-03T02:34:16;18.40;74.00
33901;DHT22;20193;49.810;6.418;2022-09-03T02:36:46;18.40;74.10
33901;DHT22;20193;49.810;6.418;2022-09-03T02:39:14;18.40;74.20
33901;DHT22;20193;49.810;6.418;2022-09-03T02:41:40;18.40;74.40
33901;DHT22;20193;49.810;6.418;2022-09-03T02:46:39;18.40;74.70
33901;DHT22;20193;49.810;6.418;2022-09-03T02:49:05;18.40;74.80
33901;DHT22;20193;49.810;6.418;2022-09-03T02:51:35;18.30;74.70
33901;DHT22;20193;49.810;6.418;2022-09-03T02:54:01;18.30;74.70
33901;DHT22;20193;49.810;6.418;2022-09-03T02:56:27;18.30;74.90
33901;DHT22;20193;49.810;6.418;2022-09-03T02:58:53;18.30;74.80
33901;DHT22;20193;49.810;6.418;2022-09-03T03:01:19;18.40;75.10
33901;DHT22;20193;49.810;6.418;2022-09-03T03:03:45;18.30;75.10
33901;DHT22;20193;49.810;6.418;2022-09-03T03:06:11;18.40;75.60
33901;DHT22;20193;49.810;6.418;2022-09-03T03:08:38;18.40;76.50
33901;DHT22;20193;49.810;6.418;2022-09-03T03:11:04;18.40;77.10
33901;DHT22;20193;49.810;6.418;2022-09-03T03:13:30;18.40;77.40
33901;DHT22;20193;49.810;6.418;2022-09-03T03:16:01;18.30;77.90
33901;DHT22;20193;49.810;6.418;2022-09-03T03:18:27;18.40;78.30
33901;DHT22;20193;49.810;6.418;2022-09-03T03:20:53;18.30;79.20
33901;DHT22;20193;49.810;6.418;2022-09-03T03:23:19;18.30;79.60
33901;DHT22;20193;49.810;6.418;2022-09-03T03:25:45;18.30;79.90
33901;DHT22;20193;49.810;6.418;2022-09-03T03:28:11;18.20;80.40
33901;DHT22;20193;49.810;6.418;2022-09-03T03:30:38;18.20;80.90
33901;DHT22;20193;49.810;6.418;2022-09-03T03:33:05;18.10;81.30
33901;DHT22;20193;49.810;6.418;2022-09-03T03:35:31;18.10;81.60
33901;DHT22;20193;49.810;6.418;2022-09-03T03:37:58;18.00;81.50
33901;DHT22;20193;49.810;6.418;2022-09-03T03:40:24;17.90;81.80
33901;DHT22;20193;49.810;6.418;2022-09-03T03:42:49;17.90;82.40
33901;DHT22;20193;49.810;6.418;2022-09-03T03:45:15;17.90;82.70
33901;DHT22;20193;49.810;6.418;2022-09-03T03:47:41;17.90;83.00
33901;DHT22;20193;49.810;6.418;2022-09-03T03:50:06;17.80;83.20
33901;DHT22;20193;49.810;6.418;2022-09-03T03:52:32;17.80;83.50
33901;DHT22;20193;49.810;6.418;2022-09-03T03:54:58;17.70;83.80
33901;DHT22;20193;49.810;6.418;2022-09-03T03:57:24;17.70;84.10
33901;DHT22;20193;49.810;6.418;2022-09-03T03:59:50;17.70;84.40
33901;DHT22;20193;49.810;6.418;2022-09-03T04:02:16;17.60;84.40
33901;DHT22;20193;49.810;6.418;2022-09-03T04:04:42;17.60;84.70
33901;DHT22;20193;49.810;6.418;2022-09-03T04:07:08;17.60;84.90
33901;DHT22;20193;49.810;6.418;2022-09-03T04:09:34;17.60;85.20
33901;DHT22;20193;49.810;6.418;2022-09-03T04:12:00;17.60;85.50
33901;DHT22;20193;49.810;6.418;2022-09-03T04:14:26;17.50;85.60
33901;DHT22;20193;49.810;6.418;2022-09-03T04:16:52;17.50;85.90
33901;DHT22;20193;49.810;6.418;2022-09-03T04:19:19;17.50;86.00
33901;DHT22;20193;49.810;6.418;2022-09-03T04:21:45;17.40;86.20
33901;DHT22;20193;49.810;6.418;2022-09-03T04:24:11;17.40;86.50
33901;DHT22;20193;49.810;6.418;2022-09-03T04:26:37;17.40;86.60
33901;DHT22;20193;49.810;6.418;2022-09-03T04:29:06;17.40;86.80
33901;DHT22;20193;49.810;6.418;2022-09-03T04:31:34;17.40;87.10
33901;DHT22;20193;49.810;6.418;2022-09-03T04:34:00;17.30;87.20
33901;DHT22;20193;49.810;6.418;2022-09-03T04:36:28;17.30;87.40
33901;DHT22;20193;49.810;6.418;2022-09-03T04:38:55;17.30;87.50
33901;DHT22;20193;49.810;6.418;2022-09-03T04:41:27;17.30;87.70
33901;DHT22;20193;49.810;6.418;2022-09-03T04:43:55;17.30;87.90
33901;DHT22;20193;49.810;6.418;2022-09-03T04:46:23;17.20;88.00
33901;DHT22;20193;49.810;6.418;2022-09-03T04:48:52;17.20;88.10
33901;DHT22;20193;49.810;6.418;2022-09-03T04:51:24;17.20;88.20
33901;DHT22;20193;49.810;6.418;2022-09-03T04:53:56;17.20;88.50
33901;DHT22;20193;49.810;6.418;2022-09-03T04:56:25;17.10;88.60
33901;DHT22;20193;49.810;6.418;2022-09-03T04:59:00;17.10;88.80
33901;DHT22;20193;49.810;6.418;2022-09-03T05:01:28;17.10;89.10
33901;DHT22;20193;49.810;6.418;2022-09-03T05:03:57;17.10;89.20
33901;DHT22;20193;49.810;6.418;2022-09-03T05:06:24;17.10;89.40
33901;DHT22;20193;49.810;6.418;2022-09-03T05:08:51;17.10;89.60
33901;DHT22;20193;49.810;6.418;2022-09-03T05:11:17;17.10;89.80
33901;DHT22;20193;49.810;6.418;2022-09-03T05:13:46;17.00;89.90
33901;DHT22;20193;49.810;6.418;2022-09-03T05:16:13;17.00;90.00
33901;DHT22;20193;49.810;6.418;2022-09-03T05:18:39;17.00;90.00
33901;DHT22;20193;49.810;6.418;2022-09-03T05:21:11;17.00;90.10
33901;DHT22;20193;49.810;6.418;2022-09-03T05:23:39;17.00;90.20
33901;DHT22;20193;49.810;6.418;2022-09-03T05:26:07;16.90;90.20
33901;DHT22;20193;49.810;6.418;2022-09-03T05:28:35;17.00;90.30
33901;DHT22;20193;49.810;6.418;2022-09-03T05:31:09;17.00;90.40
33901;DHT22;20193;49.810;6.418;2022-09-03T05:33:36;17.00;90.50
33901;DHT22;20193;49.810;6.418;2022-09-03T05:36:07;17.00;90.60
33901;DHT22;20193;49.810;6.418;2022-09-03T05:38:34;17.00;90.70
33901;DHT22;20193;49.810;6.418;2022-09-03T05:41:01;17.00;91.00
33901;DHT22;20193;49.810;6.418;2022-09-03T05:43:28;17.00;90.80
33901;DHT22;20193;49.810;6.418;2022-09-03T05:46:05;17.10;91.00
33901;DHT22;20193;49.810;6.418;2022-09-03T05:48:32;17.10;91.10
33901;DHT22;20193;49.810;6.418;2022-09-03T05:51:02;17.10;91.10
33901;DHT22;20193;49.810;6.418;2022-09-03T05:53:29;17.10;91.20
33901;DHT22;20193;49.810;6.418;2022-09-03T05:55:56;17.10;91.30
33901;DHT22;20193;49.810;6.418;2022-09-03T05:58:22;17.20;91.40
33901;DHT22;20193;49.810;6.418;2022-09-03T06:00:47;17.20;91.50
33901;DHT22;20193;49.810;6.418;2022-09-03T06:03:13;17.20;91.50
33901;DHT22;20193;49.810;6.418;2022-09-03T06:05:39;17.30;91.60
33901;DHT22;20193;49.810;6.418;2022-09-03T06:08:04;17.40;91.70
33901;DHT22;20193;49.810;6.418;2022-09-03T06:10:30;17.40;91.80
33901;DHT22;20193;49.810;6.418;2022-09-03T06:12:55;17.40;91.90
33901;DHT22;20193;49.810;6.418;2022-09-03T06:15:25;17.50;92.00
33901;DHT22;20193;49.810;6.418;2022-09-03T06:17:51;17.60;92.10
33901;DHT22;20193;49.810;6.418;2022-09-03T06:20:16;17.60;92.10
33901;DHT22;20193;49.810;6.418;2022-09-03T06:22:47;17.70;92.20
33901;DHT22;20193;49.810;6.418;2022-09-03T06:25:13;17.80;92.30
33901;DHT22;20193;49.810;6.418;2022-09-03T06:27:39;18.00;92.40
33901;DHT22;20193;49.810;6.418;2022-09-03T06:30:05;18.00;92.40
33901;DHT22;20193;49.810;6.418;2022-09-03T06:32:31;18.10;92.50
33901;DHT22;20193;49.810;6.418;2022-09-03T06:34:57;18.20;92.50
33901;DHT22;20193;49.810;6.418;2022-09-03T06:37:23;18.30;92.50
33901;DHT22;20193;49.810;6.418;2022-09-03T06:39:48;18.30;92.40
33901;DHT22;20193;49.810;6.418;2022-09-03T06:42:15;18.50;92.50
33901;DHT22;20193;49.810;6.418;2022-09-03T06:44:42;18.50;92.50
33901;DHT22;20193;49.810;6.418;2022-09-03T06:47:09;18.60;92.50
33901;DHT22;20193;49.810;6.418;2022-09-03T06:49:35;18.80;92.60
33901;DHT22;20193;49.810;6.418;2022-09-03T06:52:00;18.90;92.60
33901;DHT22;20193;49.810;6.418;2022-09-03T06:54:26;19.10;92.50
33901;DHT22;20193;49.810;6.418;2022-09-03T06:56:52;19.30;92.40
33901;DHT22;20193;49.810;6.418;2022-09-03T06:59:17;19.50;92.00
33901;DHT22;20193;49.810;6.418;2022-09-03T07:01:43;19.70;91.70
33901;DHT22;20193;49.810;6.418;2022-09-03T07:04:10;19.80;91.30
33901;DHT22;20193;49.810;6.418;2022-09-03T07:06:38;20.00;91.00
33901;DHT22;20193;49.810;6.418;2022-09-03T07:09:09;20.10;90.40
33901;DHT22;20193;49.810;6.418;2022-09-03T07:11:35;20.20;89.50
33901;DHT22;20193;49.810;6.418;2022-09-03T07:14:02;20.30;89.00
33901;DHT22;20193;49.810;6.418;2022-09-03T07:16:32;20.40;88.50
33901;DHT22;20193;49.810;6.418;2022-09-03T07:18:58;20.50;87.80
33901;DHT22;20193;49.810;6.418;2022-09-03T07:21:27;20.70;87.50
33901;DHT22;20193;49.810;6.418;2022-09-03T07:23:55;20.80;86.80
33901;DHT22;20193;49.810;6.418;2022-09-03T07:26:23;20.90;85.90
33901;DHT22;20193;49.810;6.418;2022-09-03T07:28:50;20.90;85.20
33901;DHT22;20193;49.810;6.418;2022-09-03T07:31:18;21.00;84.50
33901;DHT22;20193;49.810;6.418;2022-09-03T07:33:46;21.00;84.10
33901;DHT22;20193;49.810;6.418;2022-09-03T07:36:16;21.10;83.50
33901;DHT22;20193;49.810;6.418;2022-09-03T07:38:43;21.10;83.50
33901;DHT22;20193;49.810;6.418;2022-09-03T07:41:10;21.10;83.00
33901;DHT22;20193;49.810;6.418;2022-09-03T07:43:38;21.00;82.30
33901;DHT22;20193;49.810;6.418;2022-09-03T07:46:05;21.00;82.20
33901;DHT22;20193;49.810;6.418;2022-09-03T07:48:32;20.90;82.00
33901;DHT22;20193;49.810;6.418;2022-09-03T07:51:00;20.90;82.20
33901;DHT22;20193;49.810;6.418;2022-09-03T07:53:27;20.90;82.20
33901;DHT22;20193;49.810;6.418;2022-09-03T07:55:53;20.80;82.50
33901;DHT22;20193;49.810;6.418;2022-09-03T07:58:21;20.80;82.60
33901;DHT22;20193;49.810;6.418;2022-09-03T08:00:48;20.80;83.00
33901;DHT22;20193;49.810;6.418;2022-09-03T08:03:13;20.80;83.40
33901;DHT22;20193;49.810;6.418;2022-09-03T08:05:39;20.90;83.80
33901;DHT22;20193;49.810;6.418;2022-09-03T08:08:05;21.10;84.20
33901;DHT22;20193;49.810;6.418;2022-09-03T08:10:35;21.30;84.30
33901;DHT22;20193;49.810;6.418;2022-09-03T08:13:03;21.50;84.20
33901;DHT22;20193;49.810;6.418;2022-09-03T08:15:32;21.90;83.90
33901;DHT22;20193;49.810;6.418;2022-09-03T08:17:59;22.20;81.90
33901;DHT22;20193;49.810;6.418;2022-09-03T08:20:28;22.60;79.70
33901;DHT22;20193;49.810;6.418;2022-09-03T08:23:03;22.90;77.80
33901;DHT22;20193;49.810;6.418;2022-09-03T08:25:30;23.20;76.20
33901;DHT22;20193;49.810;6.418;2022-09-03T08:27:59;23.50;74.80
33901;DHT22;20193;49.810;6.418;2022-09-03T08:30:24;23.70;73.20
33901;DHT22;20193;49.810;6.418;2022-09-03T08:32:52;24.00;72.90
33901;DHT22;20193;49.810;6.418;2022-09-03T08:35:17;24.20;71.80
33901;DHT22;20193;49.810;6.418;2022-09-03T08:37:43;24.40;71.40
33901;DHT22;20193;49.810;6.418;2022-09-03T08:40:09;24.50;71.00
33901;DHT22;20193;49.810;6.418;2022-09-03T08:43:02;24.70;70.70
33901;DHT22;20193;49.810;6.418;2022-09-03T08:45:33;24.90;71.90
33901;DHT22;20193;49.810;6.418;2022-09-03T08:48:15;25.20;72.10
33901;DHT22;20193;49.810;6.418;2022-09-03T08:50:48;25.30;71.40
33901;DHT22;20193;49.810;6.418;2022-09-03T08:55:52;25.40;71.70
33901;DHT22;20193;49.810;6.418;2022-09-03T08:58:26;25.50;71.30
33901;DHT22;20193;49.810;6.418;2022-09-03T09:01:13;25.50;71.60
33901;DHT22;20193;49.810;6.418;2022-09-03T09:14:05;26.20;70.10
33901;DHT22;20193;49.810;6.418;2022-09-03T09:17:00;26.30;70.30
33901;DHT22;20193;49.810;6.418;2022-09-03T09:22:03;26.60;69.80
33901;DHT22;20193;49.810;6.418;2022-09-03T09:24:39;26.60;68.90
33901;DHT22;20193;49.810;6.418;2022-09-03T09:27:06;26.80;69.20
33901;DHT22;20193;49.810;6.418;2022-09-03T09:29:36;26.80;68.90
33901;DHT22;20193;49.810;6.418;2022-09-03T09:32:03;27.00;69.10
33901;DHT22;20193;49.810;6.418;2022-09-03T09:34:36;27.10;69.00
33901;DHT22;20193;49.810;6.418;2022-09-03T09:37:05;27.10;68.40
33901;DHT22;20193;49.810;6.418;2022-09-03T09:39:32;27.30;68.70
33901;DHT22;20193;49.810;6.418;2022-09-03T09:41:59;27.40;67.70
33901;DHT22;20193;49.810;6.418;2022-09-03T09:44:26;27.50;67.20
33901;DHT22;20193;49.810;6.418;2022-09-03T09:47:05;27.50;66.90
33901;DHT22;20193;49.810;6.418;2022-09-03T09:49:34;27.60;66.70
33901;DHT22;20193;49.810;6.418;2022-09-03T09:52:10;27.60;66.30
33901;DHT22;20193;49.810;6.418;2022-09-03T09:54:40;27.70;66.20
33901;DHT22;20193;49.810;6.418;2022-09-03T09:57:12;27.80;66.40
33901;DHT22;20193;49.810;6.418;2022-09-03T09:59:42;27.80;66.90
33901;DHT22;20193;49.810;6.418;2022-09-03T10:02:22;27.90;66.10
33901;DHT22;20193;49.810;6.418;2022-09-03T10:05:20;27.80;65.90
33901;DHT22;20193;49.810;6.418;2022-09-03T10:07:59;27.80;65.80
33901;DHT22;20193;49.810;6.418;2022-09-03T10:10:26;27.90;66.10
33901;DHT22;20193;49.810;6.418;2022-09-03T10:13:24;27.90;65.70
33901;DHT22;20193;49.810;6.418;2022-09-03T10:16:30;28.00;65.70
33901;DHT22;20193;49.810;6.418;2022-09-03T10:19:22;28.00;65.40
33901;DHT22;20193;49.810;6.418;2022-09-03T10:22:04;28.00;65.30
33901;DHT22;20193;49.810;6.418;2022-09-03T10:24:51;28.00;65.30
33901;DHT22;20193;49.810;6.418;2022-09-03T10:27:20;28.10;65.30
33901;DHT22;20193;49.810;6.418;2022-09-03T10:29:47;28.10;65.00
33901;DHT22;20193;49.810;6.418;2022-09-03T10:35:20;28.30;65.10
33901;DHT22;20193;49.810;6.418;2022-09-03T10:38:09;28.30;64.60
33901;DHT22;20193;49.810;6.418;2022-09-03T10:40:50;28.40;64.10
33901;DHT22;20193;49.810;6.418;2022-09-03T10:48:54;28.20;64.20
33901;DHT22;20193;49.810;6.418;2022-09-03T10:51:34;28.10;64.20
33901;DHT22;20193;49.810;6.418;2022-09-03T11:00:17;28.00;64.90
33901;DHT22;20193;49.810;6.418;2022-09-03T11:03:08;27.90;64.80
33901;DHT22;20193;49.810;6.418;2022-09-03T11:05:41;27.80;65.10
33901;DHT22;20193;49.810;6.418;2022-09-03T11:08:20;27.70;65.40
33901;DHT22;20193;49.810;6.418;2022-09-03T11:10:52;27.70;65.30
33901;DHT22;20193;49.810;6.418;2022-09-03T11:13:30;27.70;65.20
33901;DHT22;20193;49.810;6.418;2022-09-03T11:16:17;27.60;64.80
33901;DHT22;20193;49.810;6.418;2022-09-03T11:18:49;27.60;64.60
33901;DHT22;20193;49.810;6.418;2022-09-03T11:21:20;27.60;64.60
33901;DHT22;20193;49.810;6.418;2022-09-03T11:24:16;27.60;64.90
33901;DHT22;20193;49.810;6.418;2022-09-03T11:26:40;27.50;64.80
33901;DHT22;20193;49.810;6.418;2022-09-03T11:29:19;27.60;65.00
33901;DHT22;20193;49.810;6.418;2022-09-03T11:32:00;27.50;65.10
33901;DHT22;20193;49.810;6.418;2022-09-03T11:34:32;27.50;65.00
33901;DHT22;20193;49.810;6.418;2022-09-03T11:37:16;27.50;65.30
33901;DHT22;20193;49.810;6.418;2022-09-03T11:42:39;27.50;65.60
33901;DHT22;20193;49.810;6.418;2022-09-03T11:47:52;27.50;66.20
33901;DHT22;20193;49.810;6.418;2022-09-03T11:50:20;27.50;65.90
33901;DHT22;20193;49.810;6.418;2022-09-03T11:52:50;27.50;65.80
33901;DHT22;20193;49.810;6.418;2022-09-03T11:55:28;27.60;66.00
33901;DHT22;20193;49.810;6.418;2022-09-03T11:58:11;27.60;66.40
33901;DHT22;20193;49.810;6.418;2022-09-03T12:00:40;27.60;66.90
33901;DHT22;20193;49.810;6.418;2022-09-03T12:03:13;27.60;66.60
33901;DHT22;20193;49.810;6.418;2022-09-03T12:06:11;27.60;65.60
33901;DHT22;20193;49.810;6.418;2022-09-03T12:08:42;27.50;63.30
33901;DHT22;20193;49.810;6.418;2022-09-03T12:14:29;27.30;63.30
33901;DHT22;20193;49.810;6.418;2022-09-03T12:17:27;27.20;64.90
33901;DHT22;20193;49.810;6.418;2022-09-03T12:19:56;27.00;65.50
33901;DHT22;20193;49.810;6.418;2022-09-03T12:22:25;26.80;65.90
33901;DHT22;20193;49.810;6.418;2022-09-03T12:24:53;26.70;69.70
33901;DHT22;20193;49.810;6.418;2022-09-03T12:27:24;26.60;71.70
33901;DHT22;20193;49.810;6.418;2022-09-03T12:29:56;26.40;72.90
33901;DHT22;20193;49.810;6.418;2022-09-03T12:32:26;26.20;74.20
33901;DHT22;20193;49.810;6.418;2022-09-03T12:34:53;26.10;75.50
33901;DHT22;20193;49.810;6.418;2022-09-03T12:37:24;25.90;76.70
33901;DHT22;20193;49.810;6.418;2022-09-03T12:39:54;25.70;78.10
33901;DHT22;20193;49.810;6.418;2022-09-03T12:42:30;25.60;79.20
33901;DHT22;20193;49.810;6.418;2022-09-03T12:45:07;25.50;80.30
33901;DHT22;20193;49.810;6.418;2022-09-03T12:47:40;25.40;81.20
33901;DHT22;20193;49.810;6.418;2022-09-03T12:50:11;25.40;81.80
33901;DHT22;20193;49.810;6.418;2022-09-03T12:52:51;25.30;82.20
33901;DHT22;20193;49.810;6.418;2022-09-03T12:57:48;25.20;83.30
33901;DHT22;20193;49.810;6.418;2022-09-03T13:00:17;25.20;83.50
33901;DHT22;20193;49.810;6.418;2022-09-03T13:02:55;25.20;82.70
33901;DHT22;20193;49.810;6.418;2022-09-03T13:05:32;25.10;81.70
33901;DHT22;20193;49.810;6.418;2022-09-03T13:07:59;25.00;81.80
33901;DHT22;20193;49.810;6.418;2022-09-03T13:10:36;25.00;81.80
33901;DHT22;20193;49.810;6.418;2022-09-03T13:13:26;24.90;82.20
33901;DHT22;20193;49.810;6.418;2022-09-03T13:16:20;24.90;82.10
33901;DHT22;20193;49.810;6.418;2022-09-03T13:22:24;24.90;82.90
33901;DHT22;20193;49.810;6.418;2022-09-03T13:25:44;24.80;82.20
33901;DHT22;20193;49.810;6.418;2022-09-03T13:30:20;24.70;82.30
33901;DHT22;20193;49.810;6.418;2022-09-03T13:38:36;24.40;81.90
33901;DHT22;20193;49.810;6.418;2022-09-03T13:46:44;24.10;82.90
33901;DHT22;20193;49.810;6.418;2022-09-03T13:49:43;24.10;83.00
33901;DHT22;20193;49.810;6.418;2022-09-03T14:03:30;23.70;84.40
33901;DHT22;20193;49.810;6.418;2022-09-03T14:11:59;23.70;85.50
33901;DHT22;20193;49.810;6.418;2022-09-03T14:17:39;23.50;85.60
33901;DHT22;20193;49.810;6.418;2022-09-03T14:20:16;23.50;86.00
33901;DHT22;20193;49.810;6.418;2022-09-03T14:25:26;23.60;87.20
33901;DHT22;20193;49.810;6.418;2022-09-03T14:27:53;23.60;87.30
33901;DHT22;20193;49.810;6.418;2022-09-03T14:33:38;23.70;87.70
33901;DHT22;20193;49.810;6.418;2022-09-03T14:36:27;23.80;88.00
33901;DHT22;20193;49.810;6.418;2022-09-03T14:42:40;23.90;87.80
33901;DHT22;20193;49.810;6.418;2022-09-03T14:47:53;24.10;87.70
33901;DHT22;20193;49.810;6.418;2022-09-03T15:01:35;24.50;87.30
33901;DHT22;20193;49.810;6.418;2022-09-03T15:04:44;24.50;86.80
33901;DHT22;20193;49.810;6.418;2022-09-03T15:10:30;24.50;85.50
33901;DHT22;20193;49.810;6.418;2022-09-03T15:13:18;24.60;85.80
33901;DHT22;20193;49.810;6.418;2022-09-03T15:16:07;24.60;85.90
33901;DHT22;20193;49.810;6.418;2022-09-03T15:21:55;24.60;86.20
33901;DHT22;20193;49.810;6.418;2022-09-03T15:30:14;24.70;86.30
33901;DHT22;20193;49.810;6.418;2022-09-03T15:32:48;24.70;86.40
33901;DHT22;20193;49.810;6.418;2022-09-03T15:35:37;24.70;86.40
33901;DHT22;20193;49.810;6.418;2022-09-03T15:38:39;24.70;86.40
33901;DHT22;20193;49.810;6.418;2022-09-03T15:41:20;24.80;86.70
33901;DHT22;20193;49.810;6.418;2022-09-03T15:43:49;24.80;86.60
33901;DHT22;20193;49.810;6.418;2022-09-03T15:46:36;24.90;86.60
33901;DHT22;20193;49.810;6.418;2022-09-03T15:49:16;24.90;86.70
33901;DHT22;20193;49.810;6.418;2022-09-03T15:52:07;25.00;86.30
33901;DHT22;20193;49.810;6.418;2022-09-03T15:57:16;25.20;85.10
33901;DHT22;20193;49.810;6.418;2022-09-03T15:59:58;25.40;84.60
33901;DHT22;20193;49.810;6.418;2022-09-03T16:02:29;25.50;83.80
33901;DHT22;20193;49.810;6.418;2022-09-03T16:10:07;25.70;82.20
33901;DHT22;20193;49.810;6.418;2022-09-03T16:13:02;25.80;81.60
33901;DHT22;20193;49.810;6.418;2022-09-03T16:15:33;25.80;82.10
33901;DHT22;20193;49.810;6.418;2022-09-03T16:18:02;25.90;82.30
33901;DHT22;20193;49.810;6.418;2022-09-03T16:20:53;25.90;82.20
33901;DHT22;20193;49.810;6.418;2022-09-03T16:26:39;26.00;81.10
33901;DHT22;20193;49.810;6.418;2022-09-03T16:29:11;26.00;80.80
33901;DHT22;20193;49.810;6.418;2022-09-03T16:40:17;25.90;80.20
33901;DHT22;20193;49.810;6.418;2022-09-03T16:45:31;25.80;78.40
33901;DHT22;20193;49.810;6.418;2022-09-03T16:51:52;25.60;78.40
33901;DHT22;20193;49.810;6.418;2022-09-03T16:54:00;25.50;78.60
33901;DHT22;20193;49.810;6.418;2022-09-03T17:07:30;25.20;79.20
33901;DHT22;20193;49.810;6.418;2022-09-03T17:13:08;25.10;79.40
33901;DHT22;20193;49.810;6.418;2022-09-03T17:23:47;24.80;79.40
33901;DHT22;20193;49.810;6.418;2022-09-03T17:29:07;24.70;79.40
33901;DHT22;20193;49.810;6.418;2022-09-03T17:31:51;24.60;79.30
33901;DHT22;20193;49.810;6.418;2022-09-03T17:34:55;24.50;79.30
33901;DHT22;20193;49.810;6.418;2022-09-03T17:37:49;24.40;79.40
33901;DHT22;20193;49.810;6.418;2022-09-03T17:46:27;24.30;80.00
33901;DHT22;20193;49.810;6.418;2022-09-03T17:49:00;24.20;81.00
33901;DHT22;20193;49.810;6.418;2022-09-03T17:51:43;24.10;82.10
33901;DHT22;20193;49.810;6.418;2022-09-03T18:04:51;23.70;83.30
33901;DHT22;20193;49.810;6.418;2022-09-03T18:07:29;23.60;83.60
33901;DHT22;20193;49.810;6.418;2022-09-03T18:10:17;23.60;84.00
33901;DHT22;20193;49.810;6.418;2022-09-03T18:13:15;23.50;84.50
33901;DHT22;20193;49.810;6.418;2022-09-03T18:15:51;23.40;85.00
33901;DHT22;20193;49.810;6.418;2022-09-03T18:18:33;23.30;85.30
33901;DHT22;20193;49.810;6.418;2022-09-03T18:21:06;23.20;86.30
33901;DHT22;20193;49.810;6.418;2022-09-03T18:26:57;23.00;86.10
33901;DHT22;20193;49.810;6.418;2022-09-03T18:29:49;22.90;86.30
33901;DHT22;20193;49.810;6.418;2022-09-03T18:32:37;22.90;86.60
33901;DHT22;20193;49.810;6.418;2022-09-03T18:35:25;22.80;86.90
33901;DHT22;20193;49.810;6.418;2022-09-03T18:38:12;22.70;87.20
33901;DHT22;20193;49.810;6.418;2022-09-03T19:02:38;22.30;89.50
33901;DHT22;20193;49.810;6.418;2022-09-03T19:05:36;22.20;89.90
33901;DHT22;20193;49.810;6.418;2022-09-03T19:08:54;22.20;90.10
33901;DHT22;20193;49.810;6.418;2022-09-03T19:15:00;22.00;90.20
33901;DHT22;20193;49.810;6.418;2022-09-03T19:21:16;21.90;90.30
33901;DHT22;20193;49.810;6.418;2022-09-03T19:24:03;21.80;90.40
33901;DHT22;20193;49.810;6.418;2022-09-03T19:27:16;21.80;90.50
33901;DHT22;20193;49.810;6.418;2022-09-03T19:30:11;21.80;90.90
33901;DHT22;20193;49.810;6.418;2022-09-03T19:33:14;21.70;90.70
33901;DHT22;20193;49.810;6.418;2022-09-03T19:52:44;21.40;91.10
33901;DHT22;20193;49.810;6.418;2022-09-03T19:55:38;21.40;91.20
33901;DHT22;20193;49.810;6.418;2022-09-03T19:58:26;21.30;91.30
33901;DHT22;20193;49.810;6.418;2022-09-03T20:01:12;21.20;91.30
33901;DHT22;20193;49.810;6.418;2022-09-03T20:03:59;21.20;91.50
33901;DHT22;20193;49.810;6.418;2022-09-03T20:06:44;21.10;91.50
33901;DHT22;20193;49.810;6.418;2022-09-03T20:09:33;21.10;91.50
33901;DHT22;20193;49.810;6.418;2022-09-03T20:12:23;21.00;91.60
33901;DHT22;20193;49.810;6.418;2022-09-03T20:14:50;21.00;91.70
33901;DHT22;20193;49.810;6.418;2022-09-03T20:20:17;20.90;91.80
33901;DHT22;20193;49.810;6.418;2022-09-03T20:30:57;20.70;92.00
33901;DHT22;20193;49.810;6.418;2022-09-03T20:40:13;20.50;92.10
33901;DHT22;20193;49.810;6.418;2022-09-03T20:48:08;20.40;92.60
33901;DHT22;20193;49.810;6.418;2022-09-03T20:50:41;20.30;92.70
33901;DHT22;20193;49.810;6.418;2022-09-03T20:55:40;20.20;92.80
33901;DHT22;20193;49.810;6.418;2022-09-03T20:58:15;20.10;92.80
33901;DHT22;20193;49.810;6.418;2022-09-03T21:01:05;20.00;92.90
33901;DHT22;20193;49.810;6.418;2022-09-03T21:06:47;19.90;93.00
33901;DHT22;20193;49.810;6.418;2022-09-03T21:09:26;19.90;93.00
33901;DHT22;20193;49.810;6.418;2022-09-03T21:19:37;19.60;93.10
33901;DHT22;20193;49.810;6.418;2022-09-03T21:22:10;19.60;93.20
33901;DHT22;20193;49.810;6.418;2022-09-03T21:24:55;19.60;93.20
33901;DHT22;20193;49.810;6.418;2022-09-03T21:27:27;19.50;93.20
33901;DHT22;20193;49.810;6.418;2022-09-03T21:30:03;19.40;93.20
33901;DHT22;20193;49.810;6.418;2022-09-03T21:33:10;19.40;93.20
33901;DHT22;20193;49.810;6.418;2022-09-03T21:39:09;19.20;93.20